createdAt,value
2023-01-26T00:01:14.486Z,14.63
2023-01-26T00:03:41.739Z,15.07
2023-01-26T00:06:10.353Z,13.95
2023-01-26T00:08:42.032Z,14.43
2023-01-26T00:11:10.693Z,14.30
2023-01-26T00:13:38.073Z,14.35
2023-01-26T00:16:05.221Z,14.68
2023-01-26T00:18:32.000Z,13.57
2023-01-26T00:21:00.338Z,15.18
2023-01-26T00:23:28.706Z,14.48
2023-01-26T00:25:55.823Z,13.30
2023-01-26T00:28:22.640Z,15.05
2023-01-26T00:30:49.537Z,14.02
2023-01-26T00:33:16.679Z,14.15
2023-01-26T00:35:46.202Z,12.80
2023-01-26T00:38:13.754Z,14.02
2023-01-26T00:40:40.707Z,14.27
2023-01-26T00:43:07.947Z,14.18
2023-01-26T00:45:35.716Z,14.68
2023-01-26T00:48:02.575Z,15.38
2023-01-26T00:50:29.569Z,15.13
2023-01-26T00:52:56.630Z,13.18
2023-01-26T00:55:23.377Z,14.05
2023-01-26T00:57:50.486Z,12.98
2023-01-26T01:00:17.788Z,12.60
2023-01-26T01:02:44.825Z,13.32
2023-01-26T01:05:12.174Z,12.98
2023-01-26T01:07:38.895Z,10.00
2023-01-26T01:10:05.735Z,10.75
2023-01-26T01:12:32.446Z,9.90
2023-01-26T01:14:59.242Z,9.38
2023-01-26T01:17:25.930Z,9.65
2023-01-26T01:19:52.652Z,10.13
2023-01-26T01:22:19.408Z,9.90
2023-01-26T01:24:46.088Z,10.13
2023-01-26T01:27:12.916Z,10.93
2023-01-26T01:29:39.702Z,10.07
2023-01-26T01:32:06.537Z,9.90
2023-01-26T01:34:33.256Z,10.63
2023-01-26T01:36:59.942Z,11.30
2023-01-26T01:39:26.662Z,11.90
2023-01-26T01:41:53.348Z,12.02
2023-01-26T01:44:22.612Z,13.13
2023-01-26T01:47:06.009Z,12.88
2023-01-26T01:49:38.800Z,12.35
2023-01-26T01:52:08.424Z,12.68
2023-01-26T01:54:43.316Z,11.48
2023-01-26T01:57:17.691Z,12.13
2023-01-26T02:02:15.044Z,13.27
2023-01-26T02:04:42.471Z,12.93
2023-01-26T02:07:11.452Z,13.32
2023-01-26T02:10:00.318Z,13.27
2023-01-26T02:12:31.009Z,14.38
2023-01-26T02:14:58.587Z,14.32
2023-01-26T02:17:25.423Z,16.13
2023-01-26T02:20:06.834Z,13.93
2023-01-26T02:22:59.611Z,15.35
2023-01-26T02:25:52.781Z,14.95
2023-01-26T02:28:22.986Z,14.05
2023-01-26T02:30:50.463Z,13.73
2023-01-26T02:33:21.951Z,13.68
2023-01-26T02:35:48.930Z,13.63
2023-01-26T02:38:16.583Z,14.68
2023-01-26T02:40:54.325Z,13.88
2023-01-26T02:43:24.048Z,10.95
2023-01-26T02:45:50.771Z,11.68
2023-01-26T02:48:37.517Z,13.77
2023-01-26T02:51:04.777Z,13.77
2023-01-26T02:53:32.071Z,13.15
2023-01-26T02:55:58.938Z,14.40
2023-01-26T02:58:25.772Z,14.15
2023-01-26T03:00:52.611Z,14.20
2023-01-26T03:03:41.427Z,14.57
2023-01-26T03:06:12.977Z,14.05
2023-01-26T03:08:39.899Z,14.95
2023-01-26T03:11:08.461Z,14.68
2023-01-26T03:13:36.083Z,14.48
2023-01-26T03:16:07.219Z,14.68
2023-01-26T03:18:55.707Z,12.95
2023-01-26T03:21:41.514Z,14.63
2023-01-26T03:24:31.728Z,13.27
2023-01-26T03:27:17.155Z,13.15
2023-01-26T03:29:44.167Z,12.93
2023-01-26T03:32:11.160Z,13.63
2023-01-26T03:34:37.930Z,12.95
2023-01-26T03:37:05.409Z,12.70
2023-01-26T03:39:50.672Z,12.75
2023-01-26T03:42:36.064Z,11.88
2023-01-26T03:45:21.623Z,12.75
2023-01-26T03:48:07.224Z,13.10
2023-01-26T03:50:52.710Z,12.38
2023-01-26T03:53:42.268Z,12.10
2023-01-26T03:56:23.256Z,11.20
2023-01-26T03:58:55.297Z,11.70
2023-01-26T04:01:33.043Z,11.88
2023-01-26T04:04:18.372Z,11.75
2023-01-26T04:07:05.314Z,11.32
2023-01-26T04:09:33.037Z,11.15
2023-01-26T04:12:00.265Z,11.38
2023-01-26T04:14:50.118Z,11.30
2023-01-26T04:17:37.291Z,11.50
2023-01-26T04:20:24.536Z,11.93
2023-01-26T04:22:51.343Z,11.57
2023-01-26T04:25:20.876Z,11.63
2023-01-26T04:27:47.582Z,10.40
2023-01-26T04:30:15.748Z,10.70
2023-01-26T04:32:42.729Z,11.82
2023-01-26T04:35:10.240Z,11.77
2023-01-26T04:37:37.687Z,11.02
2023-01-26T04:40:05.907Z,11.85
2023-01-26T04:42:32.647Z,10.80
2023-01-26T04:44:59.393Z,10.20
2023-01-26T04:47:28.900Z,11.35
2023-01-26T04:49:56.010Z,10.68
2023-01-26T04:52:22.712Z,10.63
2023-01-26T04:54:49.447Z,10.18
2023-01-26T04:57:16.300Z,10.40
2023-01-26T04:59:43.055Z,10.68
2023-01-26T05:02:10.525Z,9.15
2023-01-26T05:04:37.627Z,9.23
2023-01-26T05:07:04.337Z,9.20
2023-01-26T05:09:31.099Z,9.93
2023-01-26T05:12:17.736Z,10.07
2023-01-26T05:14:44.438Z,9.90
2023-01-26T05:17:11.172Z,10.55
2023-01-26T05:19:37.855Z,10.30
2023-01-26T05:22:04.564Z,10.23
2023-01-26T05:24:31.300Z,10.10
2023-01-26T05:27:17.920Z,10.98
2023-01-26T05:29:44.603Z,10.35
2023-01-26T05:32:11.270Z,10.73
2023-01-26T05:34:38.513Z,10.65
2023-01-26T05:37:05.495Z,10.48
2023-01-26T05:39:32.207Z,10.20
2023-01-26T05:41:58.985Z,11.15
2023-01-26T05:44:25.823Z,10.30
2023-01-26T05:46:52.639Z,12.48
2023-01-26T05:49:19.464Z,12.02
2023-01-26T05:51:46.154Z,11.68
2023-01-26T05:54:12.853Z,12.05
2023-01-26T05:56:39.537Z,12.18
2023-01-26T05:59:06.258Z,11.65
2023-01-26T06:01:32.937Z,11.18
2023-01-26T06:03:59.656Z,11.27
2023-01-26T06:06:26.549Z,11.73
2023-01-26T06:08:53.213Z,11.77
2023-01-26T06:11:19.998Z,12.15
2023-01-26T06:13:46.676Z,12.07
2023-01-26T06:16:13.363Z,12.00
2023-01-26T06:18:40.113Z,11.70
2023-01-26T06:21:06.933Z,11.52
2023-01-26T06:23:33.887Z,10.93
2023-01-26T06:26:01.201Z,12.00
2023-01-26T06:28:28.788Z,11.63
2023-01-26T06:31:06.679Z,11.07
2023-01-26T06:33:34.909Z,12.23
2023-01-26T06:36:06.613Z,10.63
2023-01-26T06:38:33.564Z,11.20
2023-01-26T06:41:06.076Z,11.43
2023-01-26T06:43:34.554Z,10.60
2023-01-26T06:46:02.753Z,10.85
2023-01-26T06:48:32.716Z,11.13
2023-01-26T06:51:40.884Z,9.95
2023-01-26T06:54:11.484Z,10.02
2023-01-26T06:56:39.095Z,8.60
2023-01-26T06:59:05.892Z,8.30
2023-01-26T07:01:43.290Z,7.95
2023-01-26T07:04:10.267Z,8.45
2023-01-26T07:06:37.423Z,8.48
2023-01-26T07:09:04.895Z,8.70
2023-01-26T07:11:32.714Z,9.10
2023-01-26T07:13:59.759Z,8.75
2023-01-26T07:16:26.696Z,8.10
2023-01-26T07:18:54.956Z,8.50
2023-01-26T07:21:23.056Z,8.57
2023-01-26T07:23:51.718Z,8.18
2023-01-26T07:26:18.988Z,8.57
2023-01-26T07:28:45.728Z,8.02
2023-01-26T07:31:12.884Z,9.00
2023-01-26T07:33:39.838Z,9.38
2023-01-26T07:36:06.901Z,9.15
2023-01-26T07:38:34.609Z,8.60
2023-01-26T07:41:10.208Z,9.20
2023-01-26T07:43:38.180Z,9.00
2023-01-26T07:46:05.955Z,9.05
2023-01-26T07:48:34.254Z,9.02
2023-01-26T07:51:03.671Z,8.35
2023-01-26T07:53:33.938Z,9.00
2023-01-26T07:56:14.730Z,9.52
2023-01-26T07:58:41.918Z,10.07
2023-01-26T08:01:13.591Z,8.75
2023-01-26T08:03:41.038Z,9.15
2023-01-26T08:06:11.785Z,8.35
2023-01-26T08:08:42.744Z,6.80
2023-01-26T08:11:10.573Z,6.63
2023-01-26T08:13:37.908Z,7.50
2023-01-26T08:16:12.055Z,7.32
2023-01-26T08:21:06.203Z,7.60
2023-01-26T08:23:32.969Z,6.43
2023-01-26T08:26:08.434Z,6.25
2023-01-26T08:28:35.951Z,6.70
2023-01-26T08:31:19.886Z,6.82
2023-01-26T08:33:50.990Z,4.90
2023-01-26T08:36:21.709Z,6.95
2023-01-26T08:38:49.400Z,6.82
2023-01-26T08:41:16.094Z,7.18
2023-01-26T08:43:42.855Z,7.00
2023-01-26T08:46:09.729Z,7.13
2023-01-26T08:48:37.383Z,6.78
2023-01-26T08:51:05.632Z,6.10
2023-01-26T08:53:34.139Z,5.82
2023-01-26T08:56:06.219Z,7.10
2023-01-26T08:58:33.835Z,6.03
2023-01-26T09:01:08.278Z,6.20
2023-01-26T09:03:35.633Z,6.15
2023-01-26T09:06:04.416Z,6.03
2023-01-26T09:08:31.963Z,6.90
2023-01-26T09:10:59.046Z,7.30
2023-01-26T09:13:26.027Z,7.55
2023-01-26T09:15:52.811Z,7.35
2023-01-26T09:18:19.595Z,7.32
2023-01-26T09:20:46.429Z,6.80
2023-01-26T09:23:13.226Z,6.07
2023-01-26T09:25:40.516Z,6.25
2023-01-26T09:28:07.548Z,6.50
2023-01-26T09:30:34.766Z,7.53
2023-01-26T09:33:04.220Z,7.85
2023-01-26T09:35:31.212Z,7.18
2023-01-26T09:37:57.882Z,7.85
2023-01-26T09:40:54.767Z,5.13
2023-01-26T09:43:41.582Z,5.22
2023-01-26T09:46:44.455Z,5.07
2023-01-26T09:49:49.987Z,4.72
2023-01-26T09:52:47.771Z,5.45
2023-01-26T09:55:19.558Z,4.78
2023-01-26T09:58:04.734Z,5.28
2023-01-26T10:00:35.443Z,5.03
2023-01-26T10:03:16.176Z,5.15
2023-01-26T10:06:21.613Z,6.13
2023-01-26T10:08:49.829Z,5.80
2023-01-26T10:11:20.929Z,5.80
2023-01-26T10:14:16.124Z,5.95
2023-01-26T10:16:47.326Z,6.50
2023-01-26T10:19:21.954Z,4.82
2023-01-26T10:21:51.476Z,4.50
2023-01-26T10:24:22.716Z,4.38
2023-01-26T10:26:52.790Z,4.88
2023-01-26T10:29:20.626Z,5.30
2023-01-26T10:31:47.766Z,4.80
2023-01-26T10:34:24.987Z,5.20
2023-01-26T10:36:58.176Z,5.10
2023-01-26T10:39:24.973Z,5.90
2023-01-26T10:42:03.339Z,5.70
2023-01-26T10:44:38.271Z,5.75
2023-01-26T10:47:18.192Z,6.30
2023-01-26T10:49:45.424Z,5.93
2023-01-26T10:52:24.903Z,5.85
2023-01-26T10:55:12.176Z,5.80
2023-01-26T10:57:41.362Z,5.60
2023-01-26T11:00:24.547Z,6.00
2023-01-26T11:02:53.981Z,5.93
2023-01-26T11:05:25.463Z,6.30
2023-01-26T11:07:58.805Z,5.45
2023-01-26T11:10:37.645Z,5.80
2023-01-26T11:13:18.557Z,5.75
2023-01-26T11:15:52.366Z,5.63
2023-01-26T11:18:42.859Z,5.65
2023-01-26T11:21:39.243Z,5.80
2023-01-26T11:24:27.548Z,6.18
2023-01-26T11:27:42.690Z,5.88
2023-01-26T11:30:53.917Z,4.45
2023-01-26T11:33:59.331Z,5.10
2023-01-26T11:39:22.915Z,5.65
2023-01-26T11:41:58.654Z,5.40
2023-01-26T11:44:29.870Z,5.40
2023-01-26T11:47:17.888Z,6.25
2023-01-26T11:50:18.324Z,6.30
2023-01-26T11:53:30.796Z,7.28
2023-01-26T11:56:19.428Z,7.40
2023-01-26T11:58:56.479Z,7.93
2023-01-26T12:01:31.399Z,7.88
2023-01-26T12:03:58.243Z,8.50
2023-01-26T12:06:28.027Z,7.82
2023-01-26T12:09:10.471Z,7.80
2023-01-26T12:11:51.598Z,7.40
2023-01-26T12:14:45.271Z,8.13
2023-01-26T12:17:32.364Z,8.75
2023-01-26T12:20:17.087Z,8.00
2023-01-26T12:25:36.260Z,8.98
2023-01-26T12:28:12.445Z,9.10
2023-01-26T12:31:13.574Z,9.68
2023-01-26T12:33:40.818Z,9.55
2023-01-26T12:36:39.503Z,9.15
2023-01-26T12:39:13.590Z,9.50
2023-01-26T12:41:52.213Z,8.10
2023-01-26T12:45:02.428Z,8.75
2023-01-26T12:47:56.755Z,8.43
2023-01-26T12:50:26.551Z,7.78
2023-01-26T12:53:16.255Z,8.05
2023-01-26T12:56:04.579Z,7.57
2023-01-26T12:58:42.258Z,8.02
2023-01-26T13:01:12.590Z,8.40
2023-01-26T13:04:08.736Z,7.35
2023-01-26T13:06:35.492Z,7.18
2023-01-26T13:09:24.613Z,7.03
2023-01-26T13:11:51.345Z,7.75
2023-01-26T13:14:24.214Z,8.00
2023-01-26T13:16:51.225Z,8.48
2023-01-26T13:19:44.293Z,8.38
2023-01-26T13:22:26.127Z,8.05
2023-01-26T13:24:55.822Z,7.82
2023-01-26T13:27:57.138Z,7.93
2023-01-26T13:30:24.079Z,8.13
2023-01-26T13:32:52.241Z,7.75
2023-01-26T13:35:23.233Z,7.82
2023-01-26T13:37:59.279Z,7.22
2023-01-26T13:40:33.648Z,6.82
2023-01-26T13:45:41.514Z,6.85
2023-01-26T13:48:16.338Z,6.82
2023-01-26T13:50:46.226Z,6.43
2023-01-26T13:53:39.064Z,7.32
2023-01-26T13:56:18.720Z,6.80
2023-01-26T13:58:45.646Z,6.55
2023-01-26T14:01:14.242Z,7.00
2023-01-26T14:03:40.948Z,6.85
2023-01-26T14:06:22.569Z,7.40
2023-01-26T14:08:56.801Z,7.93
2023-01-26T14:11:26.732Z,8.02
2023-01-26T14:13:56.340Z,7.22
2023-01-26T14:16:32.275Z,7.70
2023-01-26T14:19:14.930Z,8.07
2023-01-26T14:21:53.885Z,7.78
2023-01-26T14:24:26.094Z,7.60
2023-01-26T14:26:52.803Z,7.78
2023-01-26T14:29:23.033Z,8.07
2023-01-26T14:31:52.175Z,7.32
2023-01-26T14:34:22.671Z,8.15
2023-01-26T14:37:05.542Z,7.72
2023-01-26T14:39:32.296Z,7.50
2023-01-26T14:42:00.492Z,7.85
2023-01-26T14:44:27.302Z,7.97
2023-01-26T14:47:08.150Z,7.93
2023-01-26T14:49:49.845Z,8.05
2023-01-26T14:52:29.745Z,8.05
2023-01-26T14:54:59.871Z,8.38
2023-01-26T14:57:28.194Z,8.07
2023-01-26T14:59:58.540Z,7.93
2023-01-26T15:02:37.271Z,8.93
2023-01-26T15:05:21.751Z,8.10
2023-01-26T15:08:17.437Z,8.35
2023-01-26T15:10:55.187Z,8.63
2023-01-26T15:13:30.840Z,8.02
2023-01-26T15:16:04.749Z,8.02
2023-01-26T15:18:33.304Z,8.15
2023-01-26T15:21:05.959Z,8.60
2023-01-26T15:23:37.469Z,8.13
2023-01-26T15:26:17.414Z,9.40
2023-01-26T15:28:44.227Z,9.40
2023-01-26T15:31:30.586Z,8.20
2023-01-26T15:34:03.914Z,8.45
2023-01-26T15:36:51.200Z,6.55
2023-01-26T15:39:21.136Z,8.75
2023-01-26T15:42:14.563Z,8.50
2023-01-26T15:44:42.387Z,9.27
2023-01-26T15:47:11.315Z,9.15
2023-01-26T15:49:38.685Z,9.25
2023-01-26T15:52:16.207Z,8.52
2023-01-26T15:54:43.670Z,8.55
2023-01-26T15:57:13.890Z,9.15
2023-01-26T15:59:41.034Z,8.65
2023-01-26T16:02:22.064Z,8.93
2023-01-26T16:04:48.916Z,8.00
2023-01-26T16:07:18.517Z,8.32
2023-01-26T16:09:45.549Z,8.35
2023-01-26T16:12:30.430Z,8.75
2023-01-26T16:14:58.152Z,8.77
2023-01-26T16:17:24.937Z,9.32
2023-01-26T16:19:51.647Z,8.23
2023-01-26T16:22:18.386Z,9.52
2023-01-26T16:24:45.519Z,9.07
2023-01-26T16:27:12.239Z,9.40
2023-01-26T16:29:38.898Z,9.45
2023-01-26T16:32:26.267Z,9.32
2023-01-26T16:34:52.992Z,9.40
2023-01-26T16:37:19.709Z,8.48
2023-01-26T16:39:46.479Z,8.85
2023-01-26T16:42:18.668Z,9.15
2023-01-26T16:44:46.987Z,9.88
2023-01-26T16:47:13.669Z,9.07
2023-01-26T16:49:40.371Z,9.23
2023-01-26T16:52:08.516Z,9.10
2023-01-26T16:54:35.292Z,8.63
2023-01-26T16:57:02.064Z,9.30
2023-01-26T16:59:28.802Z,8.98
2023-01-26T17:01:55.675Z,9.63
2023-01-26T17:04:22.386Z,8.95
2023-01-26T17:06:49.194Z,9.80
2023-01-26T17:09:16.018Z,8.70
2023-01-26T17:11:43.134Z,8.07
2023-01-26T17:14:11.890Z,9.02
2023-01-26T17:16:39.462Z,9.85
2023-01-26T17:19:08.714Z,9.23
2023-01-26T17:21:35.837Z,8.77
2023-01-26T17:24:02.717Z,9.95
2023-01-26T17:26:29.479Z,10.13
2023-01-26T17:28:56.573Z,9.50
2023-01-26T17:31:25.928Z,9.70
2023-01-26T17:33:54.331Z,9.35
2023-01-26T17:36:21.094Z,10.60
2023-01-26T17:38:49.387Z,10.88
2023-01-26T17:41:17.014Z,9.95
2023-01-26T17:43:44.068Z,10.43
2023-01-26T17:46:21.253Z,10.45
2023-01-26T17:48:49.726Z,10.55
2023-01-26T17:51:19.513Z,10.25
2023-01-26T17:53:49.536Z,10.98
2023-01-26T17:56:19.068Z,10.25
2023-01-26T17:58:55.524Z,10.05
2023-01-26T18:01:24.321Z,10.45
2023-01-26T18:03:51.389Z,10.20
2023-01-26T18:06:18.213Z,9.95
2023-01-26T18:08:45.020Z,10.13
2023-01-26T18:11:14.362Z,10.38
2023-01-26T18:13:41.702Z,9.93
2023-01-26T18:16:10.453Z,10.52
2023-01-26T18:18:37.582Z,9.88
2023-01-26T18:21:19.736Z,10.40
2023-01-26T18:23:48.128Z,10.35
2023-01-26T18:26:16.295Z,10.35
2023-01-26T18:28:44.258Z,10.93
2023-01-26T18:31:16.961Z,11.27
2023-01-26T18:33:44.454Z,11.68
2023-01-26T18:36:13.322Z,11.82
2023-01-26T18:38:44.642Z,11.88
2023-01-26T18:41:12.899Z,10.70
2023-01-26T18:43:40.342Z,11.60
2023-01-26T18:46:07.243Z,11.25
2023-01-26T18:48:35.242Z,11.57
2023-01-26T18:51:02.731Z,10.95
2023-01-26T18:53:29.962Z,12.43
2023-01-26T18:56:11.293Z,11.73
2023-01-26T18:58:39.611Z,11.70
2023-01-26T19:01:09.917Z,10.98
2023-01-26T19:03:47.448Z,11.02
2023-01-26T19:06:19.752Z,11.73
2023-01-26T19:08:48.145Z,11.30
2023-01-26T19:11:15.281Z,11.13
2023-01-26T19:13:43.280Z,11.73
2023-01-26T19:16:10.234Z,11.02
2023-01-26T19:18:37.135Z,10.55
2023-01-26T19:21:04.844Z,11.50
2023-01-26T19:23:32.288Z,10.48
2023-01-26T19:25:59.913Z,10.80
2023-01-26T19:28:26.691Z,11.07
2023-01-26T19:31:02.266Z,11.57
2023-01-26T19:33:29.157Z,11.05
2023-01-26T19:35:56.512Z,11.13
2023-01-26T19:38:24.007Z,10.60
2023-01-26T19:40:52.240Z,10.75
2023-01-26T19:43:20.186Z,11.50
2023-01-26T19:45:53.127Z,11.15
2023-01-26T19:48:27.536Z,11.10
2023-01-26T19:53:33.817Z,10.90
2023-01-26T19:56:08.953Z,10.52
2023-01-26T19:58:36.164Z,11.38
2023-01-26T20:01:06.166Z,10.88
2023-01-26T20:03:32.980Z,11.02
2023-01-26T20:06:00.143Z,11.15
2023-01-26T20:08:29.814Z,10.93
2023-01-26T20:11:06.980Z,11.13
2023-01-26T20:13:34.784Z,11.35
2023-01-26T20:16:03.602Z,12.00
2023-01-26T20:18:30.350Z,11.45
2023-01-26T20:20:58.869Z,11.95
2023-01-26T20:23:27.538Z,11.65
2023-01-26T20:26:09.061Z,12.20
2023-01-26T20:28:37.721Z,11.50
2023-01-26T20:31:05.940Z,11.95
2023-01-26T20:33:33.619Z,11.93
2023-01-26T20:36:00.425Z,11.68
2023-01-26T20:38:27.121Z,11.77
2023-01-26T20:40:53.802Z,12.05
2023-01-26T20:43:20.506Z,11.55
2023-01-26T20:45:47.215Z,11.35
2023-01-26T20:48:14.914Z,11.88
2023-01-26T20:50:41.748Z,10.48
2023-01-26T20:53:08.663Z,10.75
2023-01-26T20:55:35.789Z,11.07
2023-01-26T20:58:02.497Z,10.82
2023-01-26T21:00:29.156Z,10.98
2023-01-26T21:02:55.882Z,10.95
2023-01-26T21:05:22.732Z,11.10
2023-01-26T21:07:49.435Z,11.40
2023-01-26T21:10:16.404Z,11.15
2023-01-26T21:12:43.083Z,11.23
2023-01-26T21:15:10.355Z,10.48
2023-01-26T21:17:36.998Z,11.77
2023-01-26T21:20:04.058Z,11.35
2023-01-26T21:22:31.019Z,11.45
2023-01-26T21:24:57.722Z,11.20
2023-01-26T21:27:24.411Z,11.95
2023-01-26T21:29:51.084Z,11.85
2023-01-26T21:32:17.761Z,11.27
2023-01-26T21:34:44.538Z,11.52
2023-01-26T21:37:11.247Z,11.80
2023-01-26T21:39:37.911Z,11.88
2023-01-26T21:42:04.789Z,11.50
2023-01-26T21:44:33.290Z,12.15
2023-01-26T21:47:03.650Z,11.90
2023-01-26T21:49:30.619Z,11.52
2023-01-26T21:52:15.847Z,12.65
2023-01-26T21:54:42.547Z,11.52
2023-01-26T21:57:30.036Z,11.68
2023-01-26T21:59:57.002Z,11.38
2023-01-26T22:02:24.034Z,11.75
2023-01-26T22:04:51.233Z,11.40
2023-01-26T22:07:17.964Z,12.32
2023-01-26T22:09:44.747Z,11.13
2023-01-26T22:12:11.446Z,12.20
2023-01-26T22:14:38.236Z,11.63
2023-01-26T22:17:04.953Z,11.90
2023-01-26T22:19:31.657Z,11.60
2023-01-26T22:21:58.340Z,11.68
2023-01-26T22:24:25.075Z,10.93
2023-01-26T22:26:51.939Z,12.27
2023-01-26T22:29:18.745Z,13.45
2023-01-26T22:31:45.618Z,12.23
2023-01-26T22:34:12.435Z,13.73
2023-01-26T22:36:40.269Z,13.25
2023-01-26T22:39:07.152Z,12.77
2023-01-26T22:41:34.620Z,13.25
2023-01-26T22:44:01.585Z,13.30
2023-01-26T22:46:30.785Z,12.45
2023-01-26T22:48:59.006Z,12.05
2023-01-26T22:51:30.719Z,12.20
2023-01-26T22:53:58.443Z,11.85
2023-01-26T22:56:26.646Z,13.10
2023-01-26T22:58:58.557Z,12.82
2023-01-26T23:01:32.424Z,12.35
2023-01-26T23:04:00.212Z,11.85
2023-01-26T23:06:27.243Z,12.35
2023-01-26T23:08:54.599Z,12.27
2023-01-26T23:11:24.139Z,12.30
2023-01-26T23:13:52.366Z,12.75
2023-01-26T23:16:19.537Z,12.90
2023-01-26T23:18:46.234Z,11.82
2023-01-26T23:21:13.327Z,12.13
2023-01-26T23:23:41.014Z,12.82
2023-01-26T23:26:08.822Z,11.65
2023-01-26T23:28:37.720Z,12.60
2023-01-26T23:31:04.877Z,12.32
2023-01-26T23:33:33.628Z,11.43
2023-01-26T23:36:00.413Z,11.80
2023-01-26T23:38:28.670Z,11.57
2023-01-26T23:40:55.624Z,12.23
2023-01-26T23:43:23.111Z,11.85
2023-01-26T23:45:50.898Z,11.80
2023-01-26T23:48:18.427Z,11.88
2023-01-26T23:50:45.424Z,12.48
2023-01-26T23:53:12.444Z,13.05
2023-01-26T23:55:43.375Z,12.73
2023-01-26T23:58:11.123Z,12.38
